Amorgos, Greece
Current Conditions -  °F | °C
As of 9:50 AM on Friday 31 Oct 2014 (Local Time) from LGHI Reporting Station
Broken Clouds Broken Clouds  
Wind Chill: 59°   Ceiling: 3000
Heat Index: 59°   Visibility: 6mi
Dew Point: 52°   Wind: 15mph
Humidity: 77%   Direction: 30°NNE
Pressure: 30"   Gusts: NA
Location:  38.83°N, 25.9°E
Report Text: LGHI 310650Z 03013KT 9999 SCT020 BKN030 15/11 Q1016
Loading
Personal Weather Stations






























Interactive Weather Map
Tropical Storm Tracking
New forecast layout! Learn more

10-Day Weather Forecast

Advertisements
Track Severe Weather on mobile